In Rescue
 
Open Full Screen Window  High Contrast Mode
Wind Gusting 00 knots
12
April 02, 2020 11:25 PM CDT
Present Weather: Mist
Weather Information
Wind Direction
  290 °
Wind Speed
  12 kt (14 mph)
Wind Gust
  00 kt (0 mph)
Altimeter
30.04 in
Visibility
3 SM
Temperature
-07° C
19° F
Dewpoint
-08° C
18° F
Humidity
93%
1hr Rain Fall
00.00 in.
24hr Rain Fall
00.69 in.
Sky Condition
Overcast @ 2,000 ft
Broken @ 1,100 ft
MVFR

METAR KY63 030425Z AUTO 29012KT 3SM BR BKN011 OVC020 M07/M08 A3004 RMK AO2 T10691076

FAA Disclaimer: The data displayed is for advisory purposes only and is not to be used for flight planning or operations.